Bludenz, Austria
Current Conditions -  °F | °C
As of 9:20 AM on Friday 24 Oct 2014 (Local Time) from LSZR Reporting Station
Clear Clear  
Wind Chill: 37°   Ceiling: Unl
Heat Index: 41°   Visibility: 6mi
Dew Point: 37°   Wind: 6mph
Humidity: 87%   Direction: 110°ESE
Pressure: 30.21"   Gusts: NA
Location:  47.16°N, 9.82°E
Report Text: LSZR 240720Z 11005KT CAVOK 05/03 Q1023 NOSIG RMK D
Loading
Personal Weather Stations






























Interactive Weather Map
Tropical Storm Tracking
New forecast layout! Learn more

10-Day Weather Forecast

Advertisements
Track Severe Weather on mobile